Time;durP1;ratioP1;P1;durP2;ratioP2;P2;SDS_P1;SDS_P2;PMS_P1;PMS_P2;Temp;Humidity;BMP_temperature;BMP_pressure;BME280_temperature;BME280_humidity;BME280_pressure;Samples;Min_cycle;Max_cycle;Signal;HPM_P1;HPM_P2
2023/10/09 00:00:36;;;;;;;5.60;2.78;;;13.40;99.90;;;;;;5116034;27;20039;-63
2023/10/09 00:02:51;;;;;;;6.30;2.80;;;13.40;99.90;;;;;;5115261;27;20065;-62
2023/10/09 00:05:23;;;;;;;6.72;3.20;;;13.40;99.90;;;;;;5134456;27;20031;-62
2023/10/09 00:07:55;;;;;;;;;;;13.40;99.90;;;;;;5115568;27;20043;-63
2023/10/09 00:10:21;;;;;;;7.68;3.22;;;13.40;99.90;;;;;;5115657;27;19919;-63
2023/10/09 00:12:49;;;;;;;7.50;3.40;;;13.40;99.90;;;;;;5115131;27;20122;-62
2023/10/09 00:15:17;;;;;;;5.97;3.88;;;13.30;99.90;;;;;;5133894;27;20034;-62
2023/10/09 00:17:48;;;;;;;5.20;3.30;;;13.30;99.90;;;;;;5115522;27;20115;-62
2023/10/09 00:20:21;;;;;;;7.43;3.80;;;13.30;99.90;;;;;;5115411;27;20035;-63
2023/10/09 00:22:47;;;;;;;9.00;4.00;;;13.30;99.90;;;;;;5133729;27;20397;-62
2023/10/09 00:25:21;;;;;;;6.38;3.60;;;13.40;99.90;;;;;;5115312;27;20050;-62
2023/10/09 00:27:48;;;;;;;6.88;3.67;;;13.40;99.90;;;;;;5115028;27;20103;-63
2023/10/09 00:30:21;;;;;;;9.80;4.28;;;13.40;99.90;;;;;;5115145;27;20039;-61
2023/10/09 00:33:07;;;;;;;8.05;4.20;;;13.40;99.90;;;;;;5133731;27;20091;-62
2023/10/09 00:35:36;;;;;;;10.07;4.88;;;13.40;99.90;;;;;;5133524;27;20046;-62
2023/10/09 00:38:24;;;;;;;9.07;4.85;;;13.30;99.90;;;;;;5114539;27;20039;-62
2023/10/09 00:41:03;;;;;;;7.85;4.60;;;13.30;99.90;;;;;;5115028;27;20100;-63
2023/10/09 00:43:29;;;;;;;11.15;4.68;;;13.30;99.90;;;;;;5115099;27;20067;-63
2023/10/09 00:46:09;;;;;;;10.55;4.45;;;13.30;99.90;;;;;;5114642;27;20047;-63
2023/10/09 00:48:40;;;;;;;7.95;4.90;;;13.30;99.90;;;;;;5113703;27;20120;-62
2023/10/09 00:51:16;;;;;;;7.35;4.90;;;13.30;99.90;;;;;;5114321;27;20482;-62
2023/10/09 00:54:06;;;;;;;12.45;5.80;;;13.40;99.90;;;;;;5114851;27;20043;-62
2023/10/09 00:56:39;;;;;;;9.20;5.75;;;13.30;99.90;;;;;;5114553;27;20390;-63
2023/10/09 00:59:14;;;;;;;;;;;13.30;99.90;;;;;;5114832;27;20043;-63
2023/10/09 01:01:57;;;;;;;10.48;6.38;;;13.30;99.90;;;;;;5114821;27;19919;-62
2023/10/09 01:04:25;;;;;;;13.38;7.05;;;13.30;99.90;;;;;;5114638;27;20038;-62
2023/10/09 01:07:15;;;;;;;12.32;7.30;;;13.30;99.90;;;;;;5132744;27;20367;-63
2023/10/09 01:09:44;;;;;;;13.60;8.20;;;13.30;99.90;;;;;;5097549;27;20092;-62
2023/10/09 01:12:17;;;;;;;15.07;8.77;;;13.30;99.90;;;;;;5114054;27;20050;-63
2023/10/09 01:14:44;;;;;;;15.95;9.00;;;13.30;99.90;;;;;;5133063;27;20039;-63
2023/10/09 01:17:11;;;;;;;15.75;9.23;;;13.20;99.90;;;;;;5132191;27;20051;-62
2023/10/09 01:19:38;;;;;;;19.13;9.82;;;13.20;99.90;;;;;;5114100;27;20045;-63
2023/10/09 01:22:13;;;;;;;19.33;9.90;;;13.20;99.90;;;;;;5132607;27;20035;-62
2023/10/09 01:24:43;;;;;;;18.30;10.63;;;13.30;99.90;;;;;;5132543;27;20039;-63
2023/10/09 01:27:14;;;;;;;16.63;10.45;;;13.20;99.90;;;;;;5096672;27;20039;-62
2023/10/09 01:29:45;;;;;;;16.88;9.70;;;13.30;99.90;;;;;;5096329;27;20039;-63
2023/10/09 01:32:19;;;;;;;20.13;10.68;;;13.20;99.90;;;;;;5113862;27;20043;-63
2023/10/09 01:34:48;;;;;;;20.63;10.93;;;13.20;99.90;;;;;;5096914;27;20039;-62
2023/10/09 01:37:18;;;;;;;18.52;10.80;;;13.30;99.90;;;;;;5132290;27;20089;-61
2023/10/09 01:39:47;;;;;;;20.58;12.10;;;13.30;99.90;;;;;;5113762;27;20050;-62
2023/10/09 01:42:23;;;;;;;21.27;12.25;;;13.30;99.90;;;;;;5113654;27;20046;-63
2023/10/09 01:44:49;;;;;;;23.23;13.45;;;13.30;99.90;;;;;;5097209;27;20490;-62
2023/10/09 01:47:18;;;;;;;24.73;12.55;;;13.30;99.90;;;;;;5113575;27;20041;-63
2023/10/09 01:49:44;;;;;;;23.25;12.80;;;13.30;99.90;;;;;;5113358;27;20069;-62
2023/10/09 01:52:15;;;;;;;28.70;13.70;;;13.30;99.90;;;;;;5113708;27;20051;-62
2023/10/09 01:54:41;;;;;;;23.90;13.00;;;13.30;99.90;;;;;;5131128;27;20080;-62
2023/10/09 01:57:12;;;;;;;25.40;13.73;;;13.30;99.90;;;;;;5113078;27;20069;-63
2023/10/09 01:59:47;;;;;;;24.58;13.65;;;13.30;99.90;;;;;;5113332;27;20071;-63
2023/10/09 02:02:26;;;;;;;22.40;12.63;;;13.30;99.90;;;;;;5131563;27;20121;-62
2023/10/09 02:07:51;;;;;;;27.27;15.70;;;13.40;99.90;;;;;;5131684;27;20043;-62
2023/10/09 02:13:06;;;;;;;22.27;13.75;;;13.40;99.90;;;;;;5113319;27;20135;-63
2023/10/09 02:18:18;;;;;;;29.17;16.50;;;13.40;99.90;;;;;;5113076;27;20450;-63
2023/10/09 02:23:49;;;;;;;24.83;14.68;;;13.40;99.90;;;;;;5131562;27;20047;-62
2023/10/09 02:28:44;;;;;;;29.15;16.98;;;13.40;99.90;;;;;;5130085;27;20103;-62
2023/10/09 02:31:11;;;;;;;31.13;16.85;;;13.40;99.90;;;;;;5095906;27;20043;-63
2023/10/09 02:33:38;;;;;;;29.27;16.38;;;13.40;99.90;;;;;;5112448;27;20031;-62
2023/10/09 02:36:08;;;;;;;33.20;18.65;;;13.50;99.90;;;;;;5131290;27;20501;-62
2023/10/09 02:38:41;;;;;;;27.73;15.73;;;13.50;99.90;;;;;;5112665;27;20461;-63
2023/10/09 02:43:40;;;;;;;31.15;18.25;;;13.50;99.90;;;;;;5112556;27;19922;-63
2023/10/09 02:46:28;;;;;;;29.17;18.00;;;13.40;99.90;;;;;;5112687;28;20046;-62
2023/10/09 02:48:56;;;;;;;29.45;18.13;;;13.50;99.90;;;;;;5112694;28;20035;-63
2023/10/09 02:53:57;;;;;;;35.60;20.65;;;13.50;99.90;;;;;;5112409;28;20050;-62
2023/10/09 02:56:43;;;;;;;37.88;22.10;;;13.50;99.90;;;;;;5112630;28;20082;-63
2023/10/09 02:59:09;;;;;;;39.45;21.17;;;13.50;99.90;;;;;;5128385;28;20027;-63
2023/10/09 03:01:37;;;;;;;35.58;20.95;;;13.50;99.90;;;;;;5112590;28;20046;-63
2023/10/09 03:04:05;;;;;;;41.50;21.00;;;13.60;99.90;;;;;;5112298;28;20485;-62
2023/10/09 03:06:32;;;;;;;38.15;21.58;;;13.60;99.90;;;;;;5095629;28;20141;-63
2023/10/09 03:08:58;;;;;;;37.95;22.08;;;13.60;99.90;;;;;;5130741;28;20039;-62
2023/10/09 03:11:26;;;;;;;37.97;20.38;;;13.60;99.90;;;;;;5112218;27;20106;-63
2023/10/09 03:13:52;;;;;;;38.58;22.40;;;13.60;99.90;;;;;;5133506;27;20039;-63
2023/10/09 03:16:19;;;;;;;38.58;21.63;;;13.60;99.90;;;;;;5135161;27;20389;-63
2023/10/09 03:18:52;;;;;;;37.50;21.70;;;13.60;99.90;;;;;;5116374;27;20039;-64
2023/10/09 03:21:21;;;;;;;41.70;23.05;;;13.60;99.90;;;;;;5116677;27;20035;-63
2023/10/09 03:23:51;;;;;;;42.42;22.73;;;13.70;99.90;;;;;;5116333;27;20035;-63
2023/10/09 03:26:17;;;;;;;42.72;23.20;;;13.70;99.90;;;;;;5134862;27;20042;-61
2023/10/09 03:28:47;;;;;;;39.33;21.45;;;13.70;99.90;;;;;;5116448;27;20045;-62
2023/10/09 03:31:13;;;;;;;44.28;23.80;;;13.70;99.90;;;;;;5134628;27;20088;-62
2023/10/09 03:33:39;;;;;;;43.38;25.08;;;13.70;99.90;;;;;;5099357;27;20035;-62
2023/10/09 03:36:09;;;;;;;43.95;22.70;;;13.70;99.90;;;;;;5116650;27;20122;-62
2023/10/09 03:38:36;;;;;;;44.63;23.77;;;13.80;99.90;;;;;;5099423;27;20051;-62
2023/10/09 03:41:05;;;;;;;43.67;25.20;;;13.80;99.90;;;;;;5134894;27;20031;-62
2023/10/09 03:43:40;;;;;;;49.67;25.58;;;13.80;99.90;;;;;;5116067;27;20046;-63
2023/10/09 03:46:26;;;;;;;43.88;25.35;;;13.80;99.90;;;;;;5134216;27;20431;-63
2023/10/09 03:48:52;;;;;;;45.15;24.75;;;13.90;99.90;;;;;;5134478;27;20053;-63
2023/10/09 03:51:21;;;;;;;41.47;23.83;;;13.90;99.90;;;;;;5134450;27;20049;-62
2023/10/09 03:53:52;;;;;;;45.60;25.08;;;13.90;99.90;;;;;;5098374;27;20054;-62
2023/10/09 03:56:21;;;;;;;47.35;25.77;;;13.90;99.90;;;;;;5115917;27;20047;-62
2023/10/09 03:58:49;;;;;;;51.55;26.50;;;14.00;99.90;;;;;;5115910;27;20399;-63
2023/10/09 04:01:37;;;;;;;50.03;25.58;;;14.00;99.90;;;;;;5115919;27;20079;-63
2023/10/09 04:04:06;;;;;;;45.80;23.80;;;14.00;99.90;;;;;;5134042;27;20096;-62
2023/10/09 04:06:33;;;;;;;49.10;26.42;;;14.10;99.90;;;;;;5115737;27;20038;-63
2023/10/09 04:11:46;;;;;;;43.45;23.45;;;14.20;99.90;;;;;;5115983;27;20054;-63
2023/10/09 04:14:25;;;;;;;48.10;24.92;;;14.20;99.90;;;;;;5114830;27;20050;-62
2023/10/09 04:16:51;;;;;;;47.30;25.33;;;14.20;99.90;;;;;;5115134;27;20115;-63
2023/10/09 04:19:22;;;;;;;47.15;24.88;;;14.20;99.90;;;;;;5115315;27;20039;-62
2023/10/09 04:21:48;;;;;;;46.90;25.17;;;14.20;99.90;;;;;;5115590;27;20142;-64
2023/10/09 04:26:46;;;;;;;49.00;24.85;;;14.30;99.90;;;;;;5133727;27;20122;-62
2023/10/09 04:29:26;;;;;;;47.05;25.48;;;14.30;99.90;;;;;;5114374;27;20054;-63
2023/10/09 04:31:53;;;;;;;46.70;24.55;;;14.40;99.90;;;;;;5115338;27;20043;-64
2023/10/09 04:34:22;;;;;;;45.63;24.52;;;14.40;99.90;;;;;;5114985;27;20031;-62
2023/10/09 04:36:59;;;;;;;42.25;22.95;;;14.50;99.90;;;;;;5115209;27;20042;-63
2023/10/09 04:44:59;;;;;;;45.58;23.15;;;14.70;99.90;;;;;;5133088;27;20123;-62
2023/10/09 04:47:35;;;;;;;43.50;21.42;;;14.70;99.90;;;;;;5115040;27;20042;-63
2023/10/09 04:50:36;;;;;;;40.63;22.70;;;14.80;99.90;;;;;;5114338;27;20077;-63
2023/10/09 04:55:44;;;;;;;40.72;22.85;;;14.90;99.90;;;;;;5114673;27;20035;-63
2023/10/09 04:58:13;;;;;;;40.03;21.15;;;15.00;99.90;;;;;;5131465;27;20043;-63
2023/10/09 05:03:11;;;;;;;37.45;20.67;;;15.10;99.90;;;;;;5132918;27;20055;-63
2023/10/09 05:08:19;;;;;;;33.13;19.55;;;15.10;99.90;;;;;;5114859;27;20615;-63
2023/10/09 05:16:28;;;;;;;29.25;17.42;;;15.10;99.90;;;;;;5112058;27;20099;-62
2023/10/09 05:18:56;;;;;;;33.45;17.45;;;15.10;99.90;;;;;;5131633;27;20061;-63
2023/10/09 05:29:19;;;;;;;28.20;16.10;;;15.30;99.90;;;;;;5132580;27;20696;-63
2023/10/09 05:37:17;;;;;;;26.73;15.20;;;15.40;99.90;;;;;;5113558;27;20066;-63
2023/10/09 05:48:17;;;;;;;24.52;13.07;;;15.50;99.90;;;;;;5126533;27;20454;-63
2023/10/09 06:04:49;;;;;;;21.08;12.27;;;15.60;99.90;;;;;;5010911;28;20048;-63
2023/10/09 06:07:12;;;;;;;18.45;10.90;;;15.60;99.90;;;;;;5007944;28;20042;-63
2023/10/09 06:09:52;;;;;;;20.33;11.10;;;15.60;99.90;;;;;;5011436;28;20515;-63
2023/10/09 06:12:33;;;;;;;20.02;10.98;;;15.60;99.90;;;;;;5009657;28;20497;-62
2023/10/09 06:15:19;;;;;;;17.40;10.70;;;15.70;99.90;;;;;;5008468;28;20252;-63
2023/10/09 06:17:50;;;;;;;16.40;10.05;;;15.70;99.90;;;;;;5019683;28;20049;-63
2023/10/09 06:23:15;;;;;;;18.83;10.15;;;15.70;99.90;;;;;;5020489;28;20407;-62
2023/10/09 06:26:02;;;;;;;17.90;10.23;;;15.70;99.90;;;;;;5027579;28;20049;-63
2023/10/09 06:28:34;;;;;;;18.98;10.15;;;15.70;99.90;;;;;;5010803;28;20690;-63
2023/10/09 06:31:27;;;;;;;19.75;10.73;;;15.70;99.90;;;;;;5081977;27;20142;-63
2023/10/09 06:34:08;;;;;;;18.75;9.77;;;15.70;99.90;;;;;;5130814;27;20039;-62
2023/10/09 06:36:31;;;;;;;17.40;9.30;;;15.70;99.90;;;;;;5112500;28;20047;-62
2023/10/09 06:41:45;;;;;;;20.15;9.30;;;15.80;99.90;;;;;;5066075;28;20097;-63
2023/10/09 06:44:51;;;;;;;16.45;9.52;;;15.70;99.90;;;;;;5061759;28;20053;-62
2023/10/09 06:47:07;;;;;;;16.45;9.13;;;15.80;99.90;;;;;;5047260;28;20133;-64
2023/10/09 06:49:36;;;;;;;15.27;9.40;;;15.80;99.90;;;;;;5049347;28;20044;-62
2023/10/09 06:52:15;;;;;;;13.85;8.70;;;15.80;99.90;;;;;;5050085;28;20077;-63
2023/10/09 06:54:49;;;;;;;16.77;8.50;;;15.70;99.90;;;;;;5050810;28;20040;-63
2023/10/09 06:57:43;;;;;;;15.45;9.25;;;15.80;99.90;;;;;;5050487;28;20039;-63
2023/10/09 07:02:45;;;;;;;18.33;8.68;;;15.80;99.90;;;;;;5067079;28;20124;-62
2023/10/09 07:05:17;;;;;;;15.68;8.13;;;15.80;99.90;;;;;;5067045;28;20052;-63
2023/10/09 07:07:51;;;;;;;15.93;7.85;;;15.80;99.90;;;;;;5065483;28;20079;-63
2023/10/09 07:10:29;;;;;;;14.38;7.78;;;15.80;99.90;;;;;;5066846;28;20056;-63
2023/10/09 07:12:57;;;;;;;15.27;7.95;;;15.90;99.90;;;;;;5066933;28;20048;-62
2023/10/09 07:18:19;;;;;;;19.52;9.02;;;15.90;99.90;;;;;;5080477;28;20051;-63
2023/10/09 07:20:58;;;;;;;12.10;7.40;;;15.90;99.90;;;;;;5112347;28;20039;-63
2023/10/09 07:23:28;;;;;;;14.63;7.88;;;15.90;99.90;;;;;;5110985;28;20058;-63
2023/10/09 07:26:18;;;;;;;19.73;8.40;;;15.90;99.90;;;;;;5111306;28;20066;-64
2023/10/09 07:28:48;;;;;;;12.30;7.35;;;15.90;99.90;;;;;;5111755;28;20055;-62
2023/10/09 07:31:24;;;;;;;12.35;6.60;;;15.90;99.90;;;;;;5130486;28;20039;-61
2023/10/09 07:33:56;;;;;;;16.80;7.90;;;16.00;99.90;;;;;;5129064;28;20082;-62
2023/10/09 07:36:34;;;;;;;11.95;7.30;;;16.00;99.90;;;;;;5106161;28;20081;-63
2023/10/09 07:39:13;;;;;;;16.23;6.78;;;16.00;99.90;;;;;;5112516;28;20535;-63
2023/10/09 07:41:44;;;;;;;17.13;7.60;;;16.00;99.90;;;;;;5112201;28;20043;-63
2023/10/09 07:44:19;;;;;;;14.90;7.43;;;16.10;99.90;;;;;;5110265;28;20047;-62
2023/10/09 07:47:13;;;;;;;11.45;6.90;;;16.10;99.90;;;;;;5111431;28;20039;-62
2023/10/09 07:49:39;;;;;;;14.82;7.32;;;16.20;99.90;;;;;;5107872;28;20082;-62
2023/10/09 07:52:06;;;;;;;15.32;6.50;;;16.20;99.90;;;;;;5111775;28;20151;-62
2023/10/09 07:54:32;;;;;;;12.20;6.63;;;16.20;99.90;;;;;;5111599;28;20409;-62
2023/10/09 07:57:15;;;;;;;14.90;7.18;;;16.20;99.90;;;;;;5130185;28;20035;-62
2023/10/09 07:59:54;;;;;;;17.27;6.70;;;16.30;99.90;;;;;;5113302;27;20048;-61
2023/10/09 08:02:31;;;;;;;12.50;6.72;;;16.30;99.90;;;;;;5109302;27;20115;-63
2023/10/09 08:05:06;;;;;;;10.88;6.05;;;16.30;99.90;;;;;;5096462;27;20039;-63
2023/10/09 08:07:35;;;;;;;13.27;6.60;;;16.30;99.90;;;;;;5115372;27;20047;-62
2023/10/09 08:12:57;;;;;;;17.48;7.97;;;16.40;99.90;;;;;;5114190;27;20051;-62
2023/10/09 08:15:34;;;;;;;15.20;7.53;;;16.40;99.90;;;;;;5133300;27;20031;-62
2023/10/09 08:18:03;;;;;;;11.75;6.75;;;16.50;99.90;;;;;;5133580;27;20055;-62
2023/10/09 08:20:51;;;;;;;15.45;7.43;;;16.50;99.90;;;;;;5133601;27;20047;-62
2023/10/09 08:23:29;;;;;;;17.45;7.57;;;16.50;99.90;;;;;;5114382;27;20054;-63
2023/10/09 08:26:15;;;;;;;14.80;7.22;;;16.60;99.90;;;;;;5113000;27;20469;-62
2023/10/09 08:28:45;;;;;;;14.38;7.13;;;16.60;99.90;;;;;;5115190;27;20046;-62
2023/10/09 08:33:58;;;;;;;14.68;7.43;;;16.60;99.90;;;;;;5113991;27;20050;-61
2023/10/09 08:36:28;;;;;;;16.42;8.02;;;16.60;99.90;;;;;;5097235;27;20043;-61
2023/10/09 08:39:08;;;;;;;13.43;8.43;;;16.60;99.90;;;;;;5133144;27;20077;-61
2023/10/09 08:41:33;;;;;;;16.40;8.07;;;16.60;99.90;;;;;;5133109;27;20504;-61
2023/10/09 08:44:03;;;;;;;16.70;7.55;;;16.60;99.90;;;;;;5114622;27;20051;-62
2023/10/09 08:46:29;;;;;;;15.25;7.20;;;16.60;99.90;;;;;;5131724;27;20049;-62
2023/10/09 08:48:59;;;;;;;19.52;7.03;;;16.60;99.90;;;;;;5114631;27;20039;-62
2023/10/09 08:51:26;;;;;;;16.27;7.00;;;16.60;99.90;;;;;;5114484;27;20094;-63
2023/10/09 08:53:53;;;;;;;14.55;6.65;;;16.60;99.90;;;;;;5133032;27;20027;-63
2023/10/09 08:56:23;;;;;;;13.27;6.13;;;16.60;99.90;;;;;;5126731;27;20122;-63
2023/10/09 08:58:57;;;;;;;15.73;6.75;;;16.70;99.90;;;;;;5114499;27;20400;-62
2023/10/09 09:01:24;;;;;;;13.77;6.90;;;16.60;99.90;;;;;;5113955;27;20082;-63
2023/10/09 09:03:51;;;;;;;19.13;6.85;;;16.70;99.90;;;;;;5114010;27;20566;-63
2023/10/09 09:06:19;;;;;;;11.98;6.53;;;16.70;99.90;;;;;;5132640;27;20031;-63
2023/10/09 09:08:49;;;;;;;17.77;7.45;;;16.70;99.90;;;;;;5114172;27;20046;-63
2023/10/09 09:11:22;;;;;;;13.07;6.15;;;16.60;99.90;;;;;;5112872;27;20062;-63
2023/10/09 09:14:04;;;;;;;15.07;6.25;;;16.60;99.90;;;;;;5113695;27;20061;-63
2023/10/09 09:16:33;;;;;;;13.40;6.30;;;16.70;99.90;;;;;;5114320;27;20095;-63
2023/10/09 09:21:44;;;;;;;13.45;7.10;;;16.60;99.90;;;;;;5133014;27;20447;-62
2023/10/09 09:26:46;;;;;;;15.27;7.15;;;16.60;99.90;;;;;;5114166;27;20106;-63
2023/10/09 09:29:18;;;;;;;18.77;6.45;;;16.60;99.90;;;;;;5131655;27;20027;-62
2023/10/09 09:35:04;;;;;;;15.07;6.80;;;16.60;99.90;;;;;;5132236;27;20054;-61
2023/10/09 09:38:07;;;;;;;15.57;6.75;;;16.60;99.90;;;;;;5132573;27;20106;-64
2023/10/09 09:40:41;;;;;;;18.58;7.60;;;16.70;99.90;;;;;;5127238;27;20073;-62
2023/10/09 09:43:21;;;;;;;17.15;7.20;;;16.70;99.90;;;;;;5113881;27;20047;-63
2023/10/09 09:45:49;;;;;;;17.30;6.55;;;16.70;99.90;;;;;;5106715;27;20039;-64
2023/10/09 09:48:16;;;;;;;19.15;7.15;;;16.70;99.90;;;;;;5110227;27;20043;-62
2023/10/09 09:50:46;;;;;;;20.33;7.53;;;16.70;99.90;;;;;;5112495;27;20046;-62
2023/10/09 09:53:19;;;;;;;17.92;7.10;;;16.70;99.90;;;;;;5113516;27;20039;-63
2023/10/09 09:55:55;;;;;;;19.27;7.53;;;16.70;99.90;;;;;;5112311;27;20031;-63
2023/10/09 09:58:23;;;;;;;14.38;6.65;;;16.70;99.90;;;;;;5113717;27;20050;-62
2023/10/09 10:00:54;;;;;;;17.25;6.22;;;16.70;99.90;;;;;;5126906;27;20501;-63
2023/10/09 10:03:22;;;;;;;16.23;6.50;;;16.80;99.90;;;;;;5109207;27;20067;-63
2023/10/09 10:05:51;;;;;;;17.25;7.15;;;16.80;99.90;;;;;;5113295;27;20050;-62
2023/10/09 10:08:19;;;;;;;13.00;6.35;;;16.80;99.90;;;;;;5110438;27;20088;-62
2023/10/09 10:13:42;;;;;;;16.15;6.38;;;16.90;99.90;;;;;;5127297;27;20087;-64
2023/10/09 10:16:13;;;;;;;17.33;6.28;;;17.00;99.90;;;;;;5089749;27;20027;-62
2023/10/09 10:18:59;;;;;;;13.18;6.63;;;17.10;99.90;;;;;;5107490;27;20046;-62
2023/10/09 10:24:05;;;;;;;15.27;6.35;;;17.20;99.90;;;;;;5131114;27;20047;-64
2023/10/09 10:26:33;;;;;;;15.43;5.97;;;17.20;99.90;;;;;;5131307;27;20471;-63
2023/10/09 10:32:18;;;;;;;15.20;5.85;;;17.40;99.90;;;;;;5009721;28;20143;-63
2023/10/09 10:34:49;;;;;;;16.67;5.35;;;17.50;99.90;;;;;;5024522;28;20107;-63
2023/10/09 10:37:15;;;;;;;11.25;5.53;;;17.50;99.90;;;;;;5031618;28;20045;-64
2023/10/09 10:39:59;;;;;;;13.35;5.82;;;17.50;99.90;;;;;;5022504;28;20431;-65
2023/10/09 10:42:34;;;;;;;11.80;5.53;;;17.50;99.90;;;;;;5013843;28;20061;-63
2023/10/09 10:45:02;;;;;;;15.38;5.60;;;17.60;99.90;;;;;;5017008;28;20079;-64
2023/10/09 10:47:34;;;;;;;11.02;5.10;;;17.50;99.90;;;;;;5036311;28;20041;-65
2023/10/09 10:50:35;;;;;;;9.65;4.90;;;17.60;99.90;;;;;;5031137;28;20152;-63
2023/10/09 10:52:57;;;;;;;14.90;5.05;;;17.60;99.90;;;;;;5025739;28;20056;-63
2023/10/09 10:58:00;;;;;;;14.35;5.47;;;17.70;99.90;;;;;;5032735;28;20057;-63
2023/10/09 11:03:35;;;;;;;14.00;5.80;;;17.80;99.90;;;;;;5017968;28;20060;-63
2023/10/09 11:06:13;;;;;;;16.75;5.65;;;17.80;99.90;;;;;;5014229;28;20369;-63
2023/10/09 11:09:08;;;;;;;16.60;5.28;;;17.80;99.90;;;;;;5078621;28;20058;-63
2023/10/09 11:11:41;;;;;;;12.35;5.38;;;17.80;99.90;;;;;;5128627;28;20050;-62
2023/10/09 11:14:23;;;;;;;15.05;5.50;;;17.80;99.90;;;;;;5110442;28;20050;-63
2023/10/09 11:16:50;;;;;;;16.23;5.35;;;17.80;99.90;;;;;;5110750;28;20098;-63
2023/10/09 11:24:33;;;;;;;12.20;5.18;;;17.80;99.90;;;;;;5103262;28;20047;-64
2023/10/09 11:27:05;;;;;;;11.98;5.40;;;17.80;99.90;;;;;;5110602;28;20482;-64
2023/10/09 11:32:18;;;;;;;13.27;5.97;;;17.90;99.90;;;;;;5109825;28;20077;-63
2023/10/09 11:34:54;;;;;;;16.45;5.18;;;18.00;99.90;;;;;;5110094;27;20038;-63
2023/10/09 11:39:55;;;;;;;14.07;6.10;;;18.50;99.90;;;;;;5116341;27;20054;-62
2023/10/09 11:42:38;;;;;;;14.35;5.18;;;18.80;99.90;;;;;;5094142;28;20624;-62
2023/10/09 11:45:19;;;;;;;9.48;4.43;;;19.00;99.90;;;;;;5099189;27;20047;-62
2023/10/09 11:47:56;;;;;;;12.95;5.05;;;19.00;99.90;;;;;;5096356;27;20054;-62
2023/10/09 11:50:51;;;;;;;11.63;4.93;;;18.90;99.90;;;;;;5111861;27;20119;-62
2023/10/09 11:55:53;;;;;;;13.25;5.13;;;18.70;99.90;;;;;;5115144;27;20051;-63
2023/10/09 11:58:22;;;;;;;10.35;4.80;;;18.60;99.90;;;;;;5132153;27;20043;-62
2023/10/09 12:01:21;;;;;;;13.82;4.60;;;18.50;99.90;;;;;;5098249;27;20115;-63
2023/10/09 12:03:49;;;;;;;11.35;4.65;;;18.40;99.90;;;;;;5109273;27;20051;-65
2023/10/09 12:06:32;;;;;;;10.25;4.55;;;18.30;99.90;;;;;;5114600;27;20039;-64
2023/10/09 12:08:58;;;;;;;10.05;4.43;;;18.30;99.90;;;;;;5115111;27;20103;-64
2023/10/09 12:11:28;;;;;;;10.10;4.30;;;18.30;99.90;;;;;;5110759;27;20111;-64
2023/10/09 12:14:00;;;;;;;11.10;4.55;;;18.30;99.90;;;;;;5132708;27;20035;-62
2023/10/09 12:16:27;;;;;;;12.52;5.43;;;18.20;99.90;;;;;;5114766;27;20078;-63
2023/10/09 12:18:54;;;;;;;11.85;4.40;;;18.30;99.90;;;;;;5113321;27;20039;-63
2023/10/09 12:21:23;;;;;;;7.03;3.30;;;18.30;99.90;;;;;;5098419;27;20051;-64
2023/10/09 12:23:49;;;;;;;7.47;3.72;;;18.30;99.90;;;;;;5113909;27;20043;-64
2023/10/09 12:26:15;;;;;;;8.77;3.80;;;18.30;99.90;;;;;;5108084;27;20086;-63
2023/10/09 12:28:45;;;;;;;11.05;3.72;;;18.30;99.90;;;;;;5095953;27;20561;-63
2023/10/09 12:31:14;;;;;;;10.90;3.97;;;18.20;99.90;;;;;;5098382;27;20058;-64
2023/10/09 12:33:41;;;;;;;8.70;3.22;;;18.20;99.90;;;;;;5114619;27;20050;-62
2023/10/09 12:36:17;;;;;;;9.32;4.00;;;18.20;99.90;;;;;;5112505;27;20043;-64
2023/10/09 12:38:46;;;;;;;10.43;3.20;;;18.10;99.90;;;;;;5115503;27;20168;-63
2023/10/09 12:41:27;;;;;;;9.40;3.38;;;18.10;99.90;;;;;;5132805;27;20106;-63
2023/10/09 12:43:54;;;;;;;10.30;3.58;;;18.00;99.90;;;;;;5133702;27;20063;-64
2023/10/09 12:46:25;;;;;;;7.70;3.08;;;18.00;99.90;;;;;;5113615;27;20118;-64
2023/10/09 12:48:57;;;;;;;7.93;2.90;;;18.00;99.90;;;;;;5114762;27;20039;-62
2023/10/09 12:51:29;;;;;;;9.25;3.53;;;18.00;99.90;;;;;;5115154;27;20081;-62
2023/10/09 12:54:01;;;;;;;10.73;2.97;;;18.00;99.90;;;;;;5115108;27;20478;-62
2023/10/09 12:56:32;;;;;;;6.33;2.80;;;18.00;99.90;;;;;;5113926;27;20122;-64
2023/10/09 12:59:04;;;;;;;5.50;2.33;;;18.10;99.90;;;;;;5097818;27;20299;-61
2023/10/09 13:01:32;;;;;;;6.15;2.80;;;18.10;99.90;;;;;;5107997;27;20058;-62
2023/10/09 13:03:59;;;;;;;5.93;2.50;;;18.20;99.90;;;;;;5131195;27;20115;-63
2023/10/09 13:06:26;;;;;;;5.40;2.30;;;18.20;99.90;;;;;;5114223;27;20043;-64
2023/10/09 13:08:52;;;;;;;5.40;2.00;;;18.20;99.90;;;;;;5108724;27;20035;-64
2023/10/09 13:11:18;;;;;;;4.70;1.77;;;18.20;99.90;;;;;;5113025;27;20876;-62
2023/10/09 13:13:50;;;;;;;4.55;1.88;;;18.20;99.90;;;;;;5106019;27;20058;-62
2023/10/09 13:16:23;;;;;;;;;;;18.20;99.90;;;;;;5132973;27;20046;-64
2023/10/09 13:18:59;;;;;;;;;;;18.20;99.90;;;;;;5126564;27;20405;-63
2023/10/09 13:21:37;;;;;;;7.07;1.80;;;18.20;99.90;;;;;;5094640;27;19938;-64
2023/10/09 13:24:03;;;;;;;7.65;1.90;;;18.20;99.90;;;;;;5113000;27;20100;-63
2023/10/09 13:26:29;;;;;;;4.88;2.00;;;18.20;99.90;;;;;;5111505;27;20450;-64
2023/10/09 13:28:59;;;;;;;9.30;2.10;;;18.20;99.90;;;;;;5113241;27;20035;-62
2023/10/09 13:31:26;;;;;;;9.27;2.67;;;18.20;99.90;;;;;;5096776;27;20043;-65
2023/10/09 13:33:55;;;;;;;6.63;2.20;;;18.20;99.90;;;;;;5131460;27;20481;-63
2023/10/09 13:36:31;;;;;;;8.60;2.08;;;18.20;99.90;;;;;;5112762;27;20043;-64
2023/10/09 13:39:06;;;;;;;5.70;2.13;;;18.20;99.90;;;;;;5095520;27;20134;-64
2023/10/09 13:41:42;;;;;;;7.82;2.35;;;18.10;99.90;;;;;;5113991;27;20079;-63
2023/10/09 13:44:09;;;;;;;8.27;2.40;;;18.10;99.90;;;;;;5095173;27;20051;-63
2023/10/09 13:46:41;;;;;;;5.72;2.45;;;18.20;99.90;;;;;;5113470;27;20043;-64
2023/10/09 13:49:12;;;;;;;7.00;3.22;;;18.20;99.90;;;;;;5111746;27;20067;-65
2023/10/09 13:51:43;;;;;;;10.48;2.88;;;18.10;99.90;;;;;;5112419;27;20046;-65
2023/10/09 13:54:21;;;;;;;5.93;2.30;;;18.10;99.90;;;;;;5113874;27;20115;-62
2023/10/09 13:56:52;;;;;;;6.45;2.53;;;18.00;99.90;;;;;;5110194;27;20035;-62
2023/10/09 13:59:27;;;;;;;7.80;2.88;;;18.00;99.90;;;;;;5112173;27;20039;-63
2023/10/09 14:01:59;;;;;;;9.98;2.97;;;17.90;99.90;;;;;;5113180;27;20039;-64
2023/10/09 14:04:26;;;;;;;11.87;3.30;;;17.90;99.90;;;;;;5131949;27;20054;-64
2023/10/09 14:07:00;;;;;;;8.95;2.97;;;17.80;99.90;;;;;;5092178;27;20050;-64
2023/10/09 14:09:44;;;;;;;8.38;2.83;;;17.80;99.90;;;;;;5121899;27;20489;-64
2023/10/09 14:12:11;;;;;;;7.55;3.00;;;17.80;99.90;;;;;;5108736;27;20065;-62
2023/10/09 14:14:40;;;;;;;8.82;3.38;;;17.80;99.90;;;;;;5110795;27;20047;-63
2023/10/09 14:17:13;;;;;;;8.18;2.85;;;17.80;99.90;;;;;;5112830;27;20055;-63
2023/10/09 14:19:49;;;;;;;7.93;2.55;;;17.80;99.90;;;;;;5111869;27;20047;-63
2023/10/09 14:22:16;;;;;;;6.82;2.70;;;17.90;99.90;;;;;;5108345;27;20123;-63
2023/10/09 14:24:45;;;;;;;9.05;2.85;;;17.90;99.90;;;;;;5110779;27;20042;-64
2023/10/09 14:27:17;;;;;;;8.18;2.88;;;17.90;99.90;;;;;;5130721;27;20035;-64
2023/10/09 14:29:46;;;;;;;;;;;18.00;99.90;;;;;;5110840;27;20057;-64
2023/10/09 14:32:15;;;;;;;7.35;2.20;;;18.00;99.90;;;;;;5111129;27;20381;-63
2023/10/09 14:34:51;;;;;;;8.05;2.28;;;18.10;99.90;;;;;;5130955;27;20055;-61
2023/10/09 14:37:18;;;;;;;6.25;2.13;;;18.10;99.90;;;;;;5128064;27;20224;-63
2023/10/09 14:39:50;;;;;;;10.07;2.83;;;18.10;99.90;;;;;;5109574;27;20039;-63
2023/10/09 14:42:17;;;;;;;8.00;3.00;;;18.10;99.90;;;;;;5110180;28;20126;-63
2023/10/09 14:44:45;;;;;;;9.32;3.05;;;18.10;99.90;;;;;;5130608;27;20114;-63
2023/10/09 14:47:11;;;;;;;6.40;2.78;;;18.10;99.90;;;;;;5111989;27;20054;-64
2023/10/09 14:49:43;;;;;;;7.00;2.65;;;18.10;99.90;;;;;;5111995;28;20394;-63
2023/10/09 14:52:09;;;;;;;6.13;2.53;;;18.00;99.90;;;;;;5111388;28;20391;-64
2023/10/09 14:54:36;;;;;;;7.20;2.63;;;18.00;99.90;;;;;;5111396;28;20242;-64
2023/10/09 14:57:05;;;;;;;7.25;2.88;;;17.90;99.90;;;;;;5131048;28;20103;-64
2023/10/09 14:59:34;;;;;;;8.02;2.90;;;17.90;99.90;;;;;;5128911;28;20035;-63
2023/10/09 15:02:01;;;;;;;8.75;2.70;;;17.90;99.90;;;;;;5130965;28;20430;-64
2023/10/09 15:04:26;;;;;;;7.07;3.03;;;18.00;99.90;;;;;;5094744;28;20482;-62
2023/10/09 15:06:52;;;;;;;10.50;3.28;;;17.90;99.90;;;;;;5112526;28;20046;-63
2023/10/09 15:09:22;;;;;;;8.52;3.10;;;17.90;99.90;;;;;;5114115;27;20046;-62
2023/10/09 15:11:51;;;;;;;6.70;2.85;;;17.90;99.90;;;;;;5135393;27;20047;-64
2023/10/09 15:14:21;;;;;;;6.07;2.92;;;17.90;99.90;;;;;;5129957;27;20439;-64